Time;durP1;ratioP1;P1;durP2;ratioP2;P2;SDS_P1;SDS_P2;PMS_P1;PMS_P2;Temp;Humidity;BMP_temperature;BMP_pressure;BME280_temperature;BME280_humidity;BME280_pressure;Samples;Min_cycle;Max_cycle;Signal;HPM_P1;HPM_P2
2023/03/28 00:00:48;;;;;;;6.88;2.38;;;;;;;;;;5040730;28;20429;-79
2023/03/28 00:03:17;;;;;;;12.00;2.95;;;;;;;;;;5045560;28;20438;-80
2023/03/28 00:05:47;;;;;;;5.95;2.20;;;;;;;;;;5045860;28;20425;-79
2023/03/28 00:08:14;;;;;;;6.88;2.00;;;;;;;;;;5041255;28;20451;-79
2023/03/28 00:10:41;;;;;;;7.88;2.40;;;;;;;;;;5045396;28;20410;-80
2023/03/28 00:13:09;;;;;;;13.13;3.47;;;;;;;;;;5044984;28;20417;-79
2023/03/28 00:15:38;;;;;;;11.15;3.30;;;;;;;;;;5047831;28;20859;-79
2023/03/28 00:18:06;;;;;;;17.63;3.97;;;;;;;;;;5039185;28;20427;-80
2023/03/28 00:20:37;;;;;;;13.35;3.53;;;;;;;;;;5046037;28;20457;-80
2023/03/28 00:23:04;;;;;;;12.10;4.20;;;;;;;;;;5045495;28;20431;-79
2023/03/28 00:25:33;;;;;;;14.13;5.00;;;;;;;;;;5044524;28;20421;-80
2023/03/28 00:27:59;;;;;;;13.57;5.40;;;;;;;;;;5044575;28;20468;-79
2023/03/28 00:30:27;;;;;;;11.13;4.20;;;;;;;;;;5045641;28;20421;-79
2023/03/28 00:32:53;;;;;;;10.37;3.57;;;;;;;;;;5041897;28;20512;-79
2023/03/28 00:35:20;;;;;;;11.98;3.22;;;;;;;;;;5044313;28;20425;-79
2023/03/28 00:37:49;;;;;;;11.70;3.10;;;;;;;;;;5044383;28;20430;-79
2023/03/28 00:40:16;;;;;;;9.07;3.90;;;;;;;;;;5044117;28;20421;-80
2023/03/28 00:42:42;;;;;;;9.60;3.30;;;;;;;;;;5042502;28;20828;-79
2023/03/28 00:45:10;;;;;;;10.90;3.35;;;;;;;;;;5040145;28;20437;-79
2023/03/28 00:47:40;;;;;;;9.17;3.33;;;;;;;;;;5041961;28;20898;-79
2023/03/28 00:50:09;;;;;;;13.43;3.60;;;;;;;;;;5041469;28;20427;-79
2023/03/28 00:52:38;;;;;;;9.38;2.40;;;;;;;;;;5042947;28;20953;-79
2023/03/28 00:55:07;;;;;;;10.67;3.10;;;;;;;;;;5041533;28;20405;-79
2023/03/28 00:57:37;;;;;;;7.75;2.35;;;;;;;;;;5042847;28;20414;-79
2023/03/28 01:00:05;;;;;;;5.57;2.20;;;;;;;;;;5042606;28;20435;-79
2023/03/28 01:02:31;;;;;;;9.20;2.05;;;;;;;;;;5043285;28;20493;-79
2023/03/28 01:05:02;;;;;;;6.90;2.03;;;;;;;;;;5040486;28;20441;-79
2023/03/28 01:07:32;;;;;;;11.27;2.75;;;;;;;;;;5046328;28;20430;-79
2023/03/28 01:09:58;;;;;;;9.77;2.60;;;;;;;;;;5046875;28;20430;-79
2023/03/28 01:12:25;;;;;;;5.78;2.33;;;;;;;;;;5041672;28;20793;-79
2023/03/28 01:14:51;;;;;;;8.43;2.15;;;;;;;;;;5042618;28;20437;-79
2023/03/28 01:17:18;;;;;;;8.75;2.10;;;;;;;;;;5038729;28;20429;-79
2023/03/28 01:19:57;;;;;;;7.78;1.73;;;;;;;;;;5044967;28;20498;-79
2023/03/28 01:22:33;;;;;;;9.40;2.17;;;;;;;;;;5041803;28;20504;-80
2023/03/28 01:25:17;;;;;;;7.55;2.13;;;;;;;;;;5044020;28;20521;-79
2023/03/28 01:27:49;;;;;;;9.85;2.72;;;;;;;;;;5048556;28;20434;-79
2023/03/28 01:30:40;;;;;;;7.20;2.50;;;;;;;;;;5045351;28;20436;-79
2023/03/28 01:33:25;;;;;;;6.93;2.90;;;;;;;;;;5043374;28;20479;-79
2023/03/28 01:36:13;;;;;;;8.40;3.10;;;;;;;;;;5047601;28;20426;-79
2023/03/28 01:38:44;;;;;;;8.75;3.40;;;;;;;;;;5047669;28;20413;-80
2023/03/28 01:41:14;;;;;;;9.70;2.70;;;;;;;;;;5045402;28;20953;-79
2023/03/28 01:43:46;;;;;;;12.27;2.80;;;;;;;;;;5045661;28;20417;-80
2023/03/28 01:46:15;;;;;;;11.65;2.85;;;;;;;;;;5047600;28;20433;-80
2023/03/28 01:48:47;;;;;;;7.15;1.90;;;;;;;;;;5046896;28;20405;-79
2023/03/28 01:51:20;;;;;;;12.07;2.63;;;;;;;;;;5045992;28;20416;-79
2023/03/28 01:53:52;;;;;;;8.98;3.20;;;;;;;;;;5045102;28;21093;-80
2023/03/28 01:56:21;;;;;;;6.55;4.15;;;;;;;;;;5049095;28;20790;-79
2023/03/28 01:58:54;;;;;;;11.43;4.97;;;;;;;;;;5040386;28;20415;-79
2023/03/28 02:01:23;;;;;;;5.50;3.28;;;;;;;;;;5046660;28;20436;-79
2023/03/28 02:03:52;;;;;;;11.23;3.72;;;;;;;;;;5043807;28;20410;-80
2023/03/28 02:06:20;;;;;;;10.07;2.40;;;;;;;;;;5045045;28;20415;-79
2023/03/28 02:08:49;;;;;;;6.73;1.70;;;;;;;;;;5046842;28;20486;-79
2023/03/28 02:11:15;;;;;;;4.18;1.50;;;;;;;;;;5045590;28;20502;-79
2023/03/28 02:13:44;;;;;;;8.82;1.98;;;;;;;;;;5047500;28;20415;-80
2023/03/28 02:16:11;;;;;;;7.37;1.93;;;;;;;;;;5052488;28;20419;-81
2023/03/28 02:18:40;;;;;;;10.95;2.40;;;;;;;;;;5050247;28;20411;-80
2023/03/28 02:21:09;;;;;;;7.88;2.35;;;;;;;;;;5051207;28;20434;-81
2023/03/28 02:23:37;;;;;;;10.32;2.25;;;;;;;;;;5050644;28;20441;-79
2023/03/28 02:26:05;;;;;;;6.78;2.60;;;;;;;;;;5053227;28;20433;-80
2023/03/28 02:28:32;;;;;;;9.20;2.83;;;;;;;;;;5051978;28;21009;-79
2023/03/28 02:31:01;;;;;;;9.75;2.60;;;;;;;;;;5051209;28;20437;-80
2023/03/28 02:33:36;;;;;;;5.97;2.00;;;;;;;;;;5051492;28;20922;-79
2023/03/28 02:36:08;;;;;;;8.43;2.15;;;;;;;;;;5054583;28;20954;-81
2023/03/28 02:38:39;;;;;;;8.43;2.28;;;;;;;;;;5052265;28;20418;-79
2023/03/28 02:41:11;;;;;;;6.95;1.90;;;;;;;;;;5047698;28;20493;-80
2023/03/28 02:43:46;;;;;;;9.85;2.72;;;;;;;;;;5054797;28;20426;-79
2023/03/28 02:46:19;;;;;;;8.15;2.05;;;;;;;;;;5053411;28;20439;-82
2023/03/28 02:49:11;;;;;;;7.07;2.30;;;;;;;;;;5057199;28;20431;-81
2023/03/28 02:51:40;;;;;;;6.78;2.33;;;;;;;;;;5040173;28;20431;-81
2023/03/28 02:54:18;;;;;;;6.70;2.47;;;;;;;;;;5053499;28;20410;-80
2023/03/28 02:56:52;;;;;;;8.60;2.55;;;;;;;;;;5057489;28;20429;-80
2023/03/28 02:59:23;;;;;;;12.75;3.40;;;;;;;;;;5056981;28;20418;-81
2023/03/28 03:01:49;;;;;;;6.15;2.80;;;;;;;;;;5060029;28;20433;-81
2023/03/28 03:04:16;;;;;;;8.63;2.28;;;;;;;;;;5056424;28;20441;-81
2023/03/28 03:06:44;;;;;;;9.27;2.45;;;;;;;;;;5053131;28;20437;-79
2023/03/28 03:09:10;;;;;;;10.07;3.00;;;;;;;;;;5045494;28;20423;-79
2023/03/28 03:11:37;;;;;;;9.93;2.47;;;;;;;;;;5046929;28;20436;-79
2023/03/28 03:14:05;;;;;;;11.60;3.00;;;;;;;;;;5045975;28;20450;-79
2023/03/28 03:16:31;;;;;;;10.02;2.80;;;;;;;;;;5043668;28;20442;-79
2023/03/28 03:18:57;;;;;;;11.98;2.47;;;;;;;;;;5044780;28;20935;-79
2023/03/28 03:21:24;;;;;;;9.50;3.10;;;;;;;;;;5047851;28;20425;-79
2023/03/28 03:23:51;;;;;;;10.38;2.78;;;;;;;;;;5048576;28;20427;-79
2023/03/28 03:26:17;;;;;;;9.93;2.67;;;;;;;;;;5046530;28;20427;-79
2023/03/28 03:28:44;;;;;;;8.85;2.17;;;;;;;;;;5047354;28;20417;-79
2023/03/28 03:31:12;;;;;;;9.55;2.50;;;;;;;;;;5049214;28;20494;-79
2023/03/28 03:33:40;;;;;;;10.90;3.03;;;;;;;;;;5043624;28;20452;-79
2023/03/28 03:36:08;;;;;;;8.25;2.42;;;;;;;;;;5047267;28;20423;-79
2023/03/28 03:38:34;;;;;;;9.90;2.53;;;;;;;;;;5039817;28;20490;-79
2023/03/28 03:41:01;;;;;;;12.73;2.15;;;;;;;;;;5047921;28;20438;-79
2023/03/28 03:43:28;;;;;;;9.50;2.50;;;;;;;;;;5041745;28;20436;-79
2023/03/28 03:45:55;;;;;;;7.85;2.40;;;;;;;;;;5048225;28;20431;-79
2023/03/28 03:48:22;;;;;;;10.70;2.45;;;;;;;;;;5043266;28;20429;-79
2023/03/28 03:50:49;;;;;;;12.05;3.10;;;;;;;;;;5045481;28;20824;-79
2023/03/28 03:53:16;;;;;;;6.13;2.00;;;;;;;;;;5045658;28;20818;-79
2023/03/28 03:55:44;;;;;;;8.63;2.28;;;;;;;;;;5046220;28;20431;-79
2023/03/28 03:58:10;;;;;;;7.93;2.00;;;;;;;;;;5041665;28;20421;-79
2023/03/28 04:00:38;;;;;;;10.82;2.50;;;;;;;;;;5047264;28;20409;-79
2023/03/28 04:03:05;;;;;;;11.63;3.17;;;;;;;;;;5047199;28;20434;-79
2023/03/28 04:05:32;;;;;;;9.25;2.90;;;;;;;;;;5042034;28;20438;-79
2023/03/28 04:08:00;;;;;;;10.63;2.85;;;;;;;;;;5044667;28;20441;-79
2023/03/28 04:10:27;;;;;;;10.25;2.90;;;;;;;;;;5045700;28;20536;-80
2023/03/28 04:12:53;;;;;;;9.38;2.50;;;;;;;;;;5042622;28;20411;-79
2023/03/28 04:15:19;;;;;;;12.98;3.60;;;;;;;;;;5045556;28;20454;-79
2023/03/28 04:17:48;;;;;;;12.07;3.05;;;;;;;;;;5046103;28;20429;-79
2023/03/28 04:20:16;;;;;;;8.02;2.65;;;;;;;;;;5042769;28;20958;-79
2023/03/28 04:22:44;;;;;;;10.43;2.50;;;;;;;;;;5046173;28;20462;-79
2023/03/28 04:25:12;;;;;;;8.05;2.90;;;;;;;;;;5045100;28;20429;-79
2023/03/28 04:27:40;;;;;;;9.38;3.17;;;;;;;;;;5043458;28;20786;-80
2023/03/28 04:30:08;;;;;;;9.68;2.75;;;;;;;;;;5048535;28;20424;-79
2023/03/28 04:32:36;;;;;;;8.40;2.70;;;;;;;;;;5044545;28;20840;-80
2023/03/28 04:35:03;;;;;;;14.00;2.90;;;;;;;;;;5046736;28;20509;-80
2023/03/28 04:37:29;;;;;;;12.52;2.95;;;;;;;;;;5042254;28;20500;-78
2023/03/28 04:39:57;;;;;;;9.10;2.50;;;;;;;;;;5044075;28;20426;-78
2023/03/28 04:42:23;;;;;;;8.85;2.60;;;;;;;;;;5041377;28;20907;-78
2023/03/28 04:44:50;;;;;;;12.85;2.90;;;;;;;;;;5041579;28;20934;-78
2023/03/28 04:47:17;;;;;;;11.25;3.10;;;;;;;;;;5043410;28;20457;-79
2023/03/28 04:49:43;;;;;;;10.10;2.73;;;;;;;;;;5044578;28;20429;-78
2023/03/28 04:52:10;;;;;;;15.35;3.20;;;;;;;;;;5046558;28;20427;-79
2023/03/28 04:54:36;;;;;;;8.07;2.30;;;;;;;;;;5045415;28;20787;-78
2023/03/28 04:57:04;;;;;;;10.68;2.50;;;;;;;;;;5044216;28;20822;-79
2023/03/28 04:59:30;;;;;;;12.18;2.80;;;;;;;;;;5049589;28;20984;-80
2023/03/28 05:01:56;;;;;;;12.10;2.85;;;;;;;;;;5044970;28;20425;-79
2023/03/28 05:04:25;;;;;;;9.27;2.80;;;;;;;;;;5047523;28;20421;-80
2023/03/28 05:06:52;;;;;;;7.90;2.17;;;;;;;;;;5049468;28;20922;-80
2023/03/28 05:09:18;;;;;;;9.85;2.50;;;;;;;;;;5058824;28;20415;-80
2023/03/28 05:11:44;;;;;;;11.85;3.10;;;;;;;;;;5047686;28;20442;-79
2023/03/28 05:14:13;;;;;;;9.90;2.03;;;;;;;;;;5046540;28;20931;-79
2023/03/28 05:16:39;;;;;;;9.48;2.80;;;;;;;;;;5048136;28;20551;-79
2023/03/28 05:19:05;;;;;;;6.03;2.53;;;;;;;;;;5046638;28;20444;-80
2023/03/28 05:21:33;;;;;;;11.73;2.70;;;;;;;;;;5047117;28;20426;-80
2023/03/28 05:24:01;;;;;;;9.80;3.08;;;;;;;;;;5050580;28;20425;-79
2023/03/28 05:26:27;;;;;;;11.63;3.00;;;;;;;;;;5049310;28;20462;-79
2023/03/28 05:28:55;;;;;;;6.95;2.08;;;;;;;;;;5044214;28;20485;-79
2023/03/28 05:31:24;;;;;;;14.35;3.22;;;;;;;;;;5047450;28;20440;-79
2023/03/28 05:33:51;;;;;;;9.48;2.67;;;;;;;;;;5047510;28;20916;-79
2023/03/28 05:36:17;;;;;;;14.88;3.50;;;;;;;;;;5046416;28;20430;-79
2023/03/28 05:38:44;;;;;;;14.13;2.80;;;;;;;;;;5050563;28;20497;-80
2023/03/28 05:41:11;;;;;;;12.23;3.17;;;;;;;;;;5049678;28;20434;-80
2023/03/28 05:43:38;;;;;;;13.15;2.95;;;;;;;;;;5049123;28;20405;-80
2023/03/28 05:46:04;;;;;;;11.27;3.42;;;;;;;;;;5049401;28;20443;-80
2023/03/28 05:48:32;;;;;;;10.52;3.10;;;;;;;;;;5047249;28;20413;-81
2023/03/28 05:50:59;;;;;;;17.80;5.00;;;;;;;;;;5046713;28;20814;-80
2023/03/28 05:53:25;;;;;;;12.73;3.40;;;;;;;;;;5046708;28;20798;-81
2023/03/28 05:55:51;;;;;;;12.80;2.80;;;;;;;;;;5049968;28;20420;-80
2023/03/28 05:58:19;;;;;;;7.43;3.10;;;;;;;;;;5049318;28;20423;-81
2023/03/28 06:00:45;;;;;;;10.15;2.90;;;;;;;;;;5047914;28;20425;-80
2023/03/28 06:03:12;;;;;;;9.35;3.20;;;;;;;;;;5049584;28;20452;-81
2023/03/28 06:05:40;;;;;;;10.25;2.88;;;;;;;;;;5043867;28;20510;-80
2023/03/28 06:08:08;;;;;;;13.32;3.30;;;;;;;;;;5047108;28;20430;-81
2023/03/28 06:10:34;;;;;;;10.05;2.90;;;;;;;;;;5055682;28;20518;-80
2023/03/28 06:13:01;;;;;;;12.15;3.33;;;;;;;;;;5054990;28;20981;-81
2023/03/28 06:15:28;;;;;;;11.70;3.05;;;;;;;;;;5055828;28;20424;-81
2023/03/28 06:17:56;;;;;;;9.85;3.30;;;;;;;;;;5057596;28;20425;-81
2023/03/28 06:20:23;;;;;;;12.80;3.40;;;;;;;;;;5056048;28;20427;-82
2023/03/28 06:22:50;;;;;;;15.47;4.70;;;;;;;;;;5059447;28;20406;-80
2023/03/28 06:25:17;;;;;;;16.35;3.30;;;;;;;;;;5059265;28;20437;-81
2023/03/28 06:27:45;;;;;;;13.50;3.40;;;;;;;;;;5058483;28;20430;-81
2023/03/28 06:30:12;;;;;;;13.63;3.70;;;;;;;;;;5045115;28;20424;-80
2023/03/28 06:32:38;;;;;;;8.30;2.90;;;;;;;;;;5046040;28;20423;-80
2023/03/28 06:35:05;;;;;;;10.93;3.30;;;;;;;;;;5043631;28;20432;-80
2023/03/28 06:37:32;;;;;;;9.90;3.25;;;;;;;;;;5046507;28;20415;-80
2023/03/28 06:40:02;;;;;;;13.57;3.42;;;;;;;;;;5046310;28;20416;-80
2023/03/28 06:42:28;;;;;;;13.38;3.53;;;;;;;;;;5051403;28;20425;-80
2023/03/28 06:44:54;;;;;;;10.43;3.20;;;;;;;;;;5041902;28;20425;-80
2023/03/28 06:47:21;;;;;;;11.25;3.20;;;;;;;;;;5048957;28;20416;-80
2023/03/28 06:49:48;;;;;;;10.73;3.22;;;;;;;;;;5046757;28;20418;-80
2023/03/28 06:52:14;;;;;;;13.80;3.70;;;;;;;;;;5044626;28;20425;-80
2023/03/28 06:54:40;;;;;;;10.48;3.30;;;;;;;;;;5047338;28;20412;-80
2023/03/28 06:57:08;;;;;;;12.25;3.50;;;;;;;;;;5043024;28;20411;-80
2023/03/28 06:59:35;;;;;;;10.90;3.65;;;;;;;;;;5046274;28;20413;-80
2023/03/28 07:02:01;;;;;;;12.18;3.90;;;;;;;;;;5046353;28;20411;-80
2023/03/28 07:04:27;;;;;;;10.27;3.55;;;;;;;;;;5043733;28;20422;-78
2023/03/28 07:06:53;;;;;;;8.63;3.45;;;;;;;;;;5043777;28;20436;-79
2023/03/28 07:09:20;;;;;;;9.65;3.80;;;;;;;;;;5047780;28;20409;-79
2023/03/28 07:11:47;;;;;;;13.45;3.63;;;;;;;;;;5047975;28;20424;-80
2023/03/28 07:14:14;;;;;;;13.95;4.30;;;;;;;;;;5047852;28;20405;-78
2023/03/28 07:16:41;;;;;;;11.65;3.88;;;;;;;;;;5044426;28;20409;-79
2023/03/28 07:19:07;;;;;;;8.80;3.67;;;;;;;;;;5046500;28;20421;-78
2023/03/28 07:21:34;;;;;;;13.80;3.80;;;;;;;;;;5042289;28;20933;-79
2023/03/28 07:24:00;;;;;;;9.35;2.97;;;;;;;;;;5046573;28;20790;-79
2023/03/28 07:26:26;;;;;;;16.60;4.40;;;;;;;;;;5040626;28;20415;-79
2023/03/28 07:28:53;;;;;;;16.75;4.28;;;;;;;;;;5048973;28;20436;-80
2023/03/28 07:31:23;;;;;;;15.43;3.60;;;;;;;;;;5044763;28;20430;-79
2023/03/28 07:33:49;;;;;;;11.65;3.25;;;;;;;;;;5044560;28;20421;-79
2023/03/28 07:36:17;;;;;;;15.25;3.78;;;;;;;;;;5045534;28;20502;-79
2023/03/28 07:38:43;;;;;;;15.50;3.90;;;;;;;;;;5045668;28;20413;-81
2023/03/28 07:41:10;;;;;;;10.80;4.43;;;;;;;;;;5045759;28;20431;-79
2023/03/28 07:43:37;;;;;;;12.40;4.15;;;;;;;;;;5046659;28;20780;-79
2023/03/28 07:46:05;;;;;;;14.48;4.18;;;;;;;;;;5044380;28;20413;-79
2023/03/28 07:48:33;;;;;;;11.40;4.10;;;;;;;;;;5043913;28;20437;-79
2023/03/28 07:51:00;;;;;;;13.88;4.38;;;;;;;;;;5043011;28;20509;-79
2023/03/28 07:53:28;;;;;;;15.82;4.15;;;;;;;;;;5044594;28;20422;-79
2023/03/28 07:55:54;;;;;;;14.63;4.97;;;;;;;;;;5047542;28;20409;-79
2023/03/28 07:58:21;;;;;;;16.45;4.82;;;;;;;;;;5050759;28;20413;-79
2023/03/28 08:00:47;;;;;;;10.63;3.72;;;;;;;;;;5046717;28;20937;-79
2023/03/28 08:03:14;;;;;;;13.50;4.80;;;;;;;;;;5049676;28;20415;-81
2023/03/28 08:05:50;;;;;;;14.60;4.47;;;;;;;;;;5044763;28;20513;-80
2023/03/28 08:08:16;;;;;;;11.60;4.00;;;;;;;;;;5045366;28;20432;-80
2023/03/28 08:10:44;;;;;;;11.35;3.90;;;;;;;;;;5049704;28;20422;-79
2023/03/28 08:13:11;;;;;;;11.90;4.18;;;;;;;;;;5041521;28;20908;-80
2023/03/28 08:15:37;;;;;;;14.02;4.97;;;;;;;;;;5042743;28;20411;-80
2023/03/28 08:18:03;;;;;;;17.67;7.30;;;;;;;;;;5040696;28;20919;-81
2023/03/28 08:20:30;;;;;;;12.25;3.28;;;;;;;;;;5044049;28;20953;-78
2023/03/28 08:22:58;;;;;;;13.57;3.80;;;;;;;;;;5041755;28;20423;-78
2023/03/28 08:25:24;;;;;;;14.27;4.20;;;;;;;;;;5041845;28;20812;-78
2023/03/28 08:27:50;;;;;;;13.30;4.05;;;;;;;;;;5045129;28;20421;-78
2023/03/28 08:30:17;;;;;;;11.98;3.75;;;;;;;;;;5031726;28;20422;-79
2023/03/28 08:32:43;;;;;;;13.32;3.58;;;;;;;;;;5043596;28;20544;-78
2023/03/28 08:35:10;;;;;;;11.13;3.50;;;;;;;;;;5045939;28;20415;-79
2023/03/28 08:37:36;;;;;;;13.80;3.50;;;;;;;;;;5043325;28;20849;-79
2023/03/28 08:40:09;;;;;;;13.27;3.30;;;;;;;;;;5037355;28;20419;-79
2023/03/28 08:42:46;;;;;;;9.73;3.38;;;;;;;;;;5047489;28;20416;-79
2023/03/28 08:45:20;;;;;;;9.60;3.15;;;;;;;;;;5041399;28;20939;-79
2023/03/28 08:47:52;;;;;;;7.88;3.08;;;;;;;;;;5047101;28;20428;-79
2023/03/28 08:50:22;;;;;;;8.10;3.30;;;;;;;;;;5043812;28;20433;-79
2023/03/28 08:52:48;;;;;;;12.50;3.55;;;;;;;;;;5043794;28;20429;-79
2023/03/28 08:55:22;;;;;;;7.70;3.30;;;;;;;;;;5045353;28;20421;-79
2023/03/28 08:57:51;;;;;;;9.50;2.90;;;;;;;;;;5041568;28;20919;-78
2023/03/28 09:00:23;;;;;;;10.98;3.05;;;;;;;;;;5039748;28;20429;-79
2023/03/28 09:02:50;;;;;;;7.32;2.90;;;;;;;;;;5044285;28;20440;-78
2023/03/28 09:05:17;;;;;;;12.88;3.72;;;;;;;;;;5043742;28;20441;-79
2023/03/28 09:07:48;;;;;;;9.75;2.53;;;;;;;;;;5042982;28;20425;-80
2023/03/28 09:10:17;;;;;;;11.45;3.03;;;;;;;;;;5044384;28;20426;-78
2023/03/28 09:12:50;;;;;;;15.35;3.40;;;;;;;;;;5042264;28;20417;-80
2023/03/28 09:15:38;;;;;;;9.85;2.42;;;;;;;;;;5039581;28;20922;-78
2023/03/28 09:18:17;;;;;;;7.35;2.40;;;;;;;;;;5008552;28;20417;-78
2023/03/28 09:20:47;;;;;;;10.40;2.90;;;;;;;;;;5043600;28;20421;-80
2023/03/28 09:23:20;;;;;;;11.43;3.20;;;;;;;;;;5041475;28;20413;-80
2023/03/28 09:25:49;;;;;;;8.52;3.10;;;;;;;;;;5042413;28;20447;-79
2023/03/28 09:28:23;;;;;;;10.98;3.67;;;;;;;;;;5044644;28;20506;-79
2023/03/28 09:30:51;;;;;;;8.15;2.70;;;;;;;;;;5045519;28;20444;-81
2023/03/28 09:33:20;;;;;;;14.63;3.70;;;;;;;;;;5041577;28;20433;-81
2023/03/28 09:35:48;;;;;;;9.57;2.90;;;;;;;;;;5042836;28;20438;-78
2023/03/28 09:38:17;;;;;;;13.73;3.78;;;;;;;;;;5042456;28;20428;-81
2023/03/28 09:40:45;;;;;;;14.57;3.40;;;;;;;;;;5039351;28;20920;-79
2023/03/28 09:43:13;;;;;;;10.95;3.30;;;;;;;;;;5040936;28;20422;-81
2023/03/28 09:45:46;;;;;;;12.30;3.10;;;;;;;;;;5047231;28;20760;-81
2023/03/28 09:48:16;;;;;;;12.25;2.67;;;;;;;;;;5044114;28;20504;-79
2023/03/28 09:50:42;;;;;;;10.55;2.72;;;;;;;;;;5047163;28;20411;-79
2023/03/28 09:53:11;;;;;;;11.65;2.67;;;;;;;;;;5047117;28;20417;-78
2023/03/28 09:55:37;;;;;;;9.82;2.63;;;;;;;;;;5042562;28;20415;-78
2023/03/28 09:58:06;;;;;;;9.80;2.97;;;;;;;;;;5048325;28;20431;-78
2023/03/28 10:00:36;;;;;;;11.15;2.50;;;;;;;;;;5054611;28;20417;-78
2023/03/28 10:03:09;;;;;;;12.23;2.60;;;;;;;;;;5066142;28;20427;-79
2023/03/28 10:05:38;;;;;;;12.85;3.05;;;;;;;;;;5063933;28;20420;-79
2023/03/28 10:08:06;;;;;;;8.07;2.70;;;;;;;;;;5065158;28;20505;-79
2023/03/28 10:10:33;;;;;;;12.70;2.77;;;;;;;;;;5066508;28;20415;-79
2023/03/28 10:13:06;;;;;;;7.30;2.57;;;;;;;;;;5066129;28;20438;-78
2023/03/28 10:15:34;;;;;;;9.00;2.40;;;;;;;;;;5063052;28;20421;-79
2023/03/28 10:18:01;;;;;;;8.53;2.40;;;;;;;;;;5064452;28;20970;-79
2023/03/28 10:20:32;;;;;;;9.43;2.85;;;;;;;;;;5062747;28;20417;-78
2023/03/28 10:22:59;;;;;;;6.70;2.00;;;;;;;;;;5066328;28;20434;-80
2023/03/28 10:25:31;;;;;;;8.68;2.20;;;;;;;;;;5065387;28;20901;-79
2023/03/28 10:27:59;;;;;;;8.57;2.17;;;;;;;;;;5067388;28;20419;-79
2023/03/28 10:30:28;;;;;;;6.30;2.08;;;;;;;;;;5068525;28;20417;-80
2023/03/28 10:33:08;;;;;;;7.35;2.25;;;;;;;;;;5066179;28;20421;-78
2023/03/28 10:35:40;;;;;;;6.22;1.90;;;;;;;;;;5064036;28;20424;-81
2023/03/28 10:38:12;;;;;;;9.35;2.30;;;;;;;;;;5066048;28;20426;-79
2023/03/28 10:40:39;;;;;;;9.63;2.55;;;;;;;;;;5067598;28;20413;-79
2023/03/28 10:43:11;;;;;;;8.50;2.08;;;;;;;;;;5066560;28;20415;-79
2023/03/28 10:45:38;;;;;;;6.45;2.35;;;;;;;;;;5064425;28;20428;-80
2023/03/28 10:48:07;;;;;;;10.37;2.40;;;;;;;;;;5065660;28;20419;-81
2023/03/28 10:50:36;;;;;;;7.55;2.10;;;;;;;;;;5065136;28;20906;-81
2023/03/28 10:53:10;;;;;;;7.77;2.47;;;;;;;;;;5067032;28;20486;-81
2023/03/28 10:55:39;;;;;;;7.00;1.90;;;;;;;;;;5066212;28;20409;-79
2023/03/28 10:58:12;;;;;;;6.83;2.07;;;;;;;;;;5064700;28;20817;-79
2023/03/28 11:00:41;;;;;;;7.93;1.70;;;;;;;;;;5066045;28;20416;-79
2023/03/28 11:03:15;;;;;;;8.55;2.28;;;;;;;;;;5064767;28;20416;-80
2023/03/28 11:05:46;;;;;;;8.35;2.40;;;;;;;;;;5059032;28;20416;-80
2023/03/28 11:08:21;;;;;;;5.63;2.10;;;;;;;;;;5069648;28;20429;-80
2023/03/28 11:10:54;;;;;;;7.07;2.10;;;;;;;;;;5065516;28;20406;-80
2023/03/28 11:13:27;;;;;;;6.90;2.20;;;;;;;;;;5069757;28;20411;-80
2023/03/28 11:15:56;;;;;;;8.77;2.50;;;;;;;;;;5063853;28;20424;-79
2023/03/28 11:18:44;;;;;;;6.75;1.90;;;;;;;;;;5066589;28;20437;-79
2023/03/28 11:21:22;;;;;;;6.22;2.47;;;;;;;;;;5065393;28;20416;-79
2023/03/28 11:23:55;;;;;;;7.50;2.00;;;;;;;;;;5062960;28;20932;-79
2023/03/28 11:26:25;;;;;;;5.35;2.40;;;;;;;;;;5064101;28;20423;-79
2023/03/28 11:28:57;;;;;;;5.67;2.67;;;;;;;;;;5066549;28;20417;-80
2023/03/28 11:31:26;;;;;;;7.00;2.25;;;;;;;;;;5063912;28;20887;-81
2023/03/28 11:33:56;;;;;;;6.27;2.17;;;;;;;;;;5063651;28;20422;-81
2023/03/28 11:36:28;;;;;;;7.05;2.75;;;;;;;;;;5065307;28;20414;-80
2023/03/28 11:38:57;;;;;;;8.70;2.80;;;;;;;;;;5062509;28;20439;-79
2023/03/28 11:41:24;;;;;;;6.43;2.30;;;;;;;;;;5064590;28;20420;-79
2023/03/28 11:43:53;;;;;;;7.38;2.55;;;;;;;;;;5059167;28;20419;-79
2023/03/28 11:46:22;;;;;;;5.63;2.20;;;;;;;;;;5065972;28;20436;-79
2023/03/28 11:48:53;;;;;;;7.72;2.42;;;;;;;;;;5062235;28;20412;-79
2023/03/28 11:51:23;;;;;;;10.35;2.70;;;;;;;;;;5066601;28;20422;-79
2023/03/28 11:53:53;;;;;;;7.53;2.50;;;;;;;;;;5063631;28;20421;-81
2023/03/28 11:56:26;;;;;;;7.07;1.80;;;;;;;;;;5065976;28;20415;-80
2023/03/28 11:58:55;;;;;;;6.72;2.65;;;;;;;;;;5061785;28;20429;-81
2023/03/28 12:01:23;;;;;;;7.60;2.70;;;;;;;;;;5062255;28;20937;-79
2023/03/28 12:04:18;;;;;;;7.97;2.93;;;;;;;;;;5062178;28;20439;-79
2023/03/28 12:06:51;;;;;;;7.95;2.53;;;;;;;;;;5062711;28;20424;-79
2023/03/28 12:09:24;;;;;;;6.38;2.30;;;;;;;;;;5064724;28;20423;-79
2023/03/28 12:11:53;;;;;;;10.50;2.50;;;;;;;;;;5065659;28;20421;-79
2023/03/28 12:14:37;;;;;;;9.50;2.63;;;;;;;;;;5062847;28;20799;-79
2023/03/28 12:17:11;;;;;;;8.27;2.10;;;;;;;;;;5062555;28;20416;-81
2023/03/28 12:19:39;;;;;;;7.22;2.30;;;;;;;;;;5065524;28;20416;-81
2023/03/28 12:22:08;;;;;;;7.50;2.80;;;;;;;;;;5066324;28;20430;-81
2023/03/28 12:24:40;;;;;;;10.20;2.20;;;;;;;;;;5058868;28;20475;-81
2023/03/28 12:27:11;;;;;;;6.95;2.17;;;;;;;;;;5060015;28;20956;-81
2023/03/28 12:29:41;;;;;;;5.03;2.20;;;;;;;;;;5062915;28;20417;-81
2023/03/28 12:32:23;;;;;;;6.43;2.33;;;;;;;;;;5063688;28;20416;-79
2023/03/28 12:34:52;;;;;;;8.23;2.50;;;;;;;;;;5058943;28;20417;-79
2023/03/28 12:37:21;;;;;;;5.68;2.20;;;;;;;;;;5065340;28;20407;-79
2023/03/28 12:39:51;;;;;;;9.10;2.22;;;;;;;;;;5061576;28;20421;-79
2023/03/28 12:42:19;;;;;;;5.63;2.20;;;;;;;;;;5060199;28;20892;-79
2023/03/28 12:44:48;;;;;;;5.50;2.00;;;;;;;;;;5064109;28;20415;-79
2023/03/28 12:47:17;;;;;;;6.47;2.10;;;;;;;;;;5062636;28;20924;-79
2023/03/28 12:49:44;;;;;;;5.10;2.30;;;;;;;;;;5063781;28;20412;-79
2023/03/28 12:52:12;;;;;;;6.97;2.40;;;;;;;;;;5065636;28;20409;-79
2023/03/28 12:54:53;;;;;;;3.90;2.40;;;;;;;;;;5065298;28;20949;-79
2023/03/28 12:57:36;;;;;;;6.63;2.28;;;;;;;;;;5059927;28;20408;-79
2023/03/28 13:00:15;;;;;;;6.57;2.37;;;;;;;;;;5068201;28;20423;-79
2023/03/28 13:02:45;;;;;;;10.55;3.40;;;;;;;;;;5063603;28;20509;-79
2023/03/28 13:05:14;;;;;;;9.30;3.20;;;;;;;;;;5062230;28;20412;-79
2023/03/28 13:07:47;;;;;;;8.05;2.90;;;;;;;;;;5065752;28;20936;-79
2023/03/28 13:10:17;;;;;;;4.97;1.90;;;;;;;;;;5063624;28;20419;-79
2023/03/28 13:12:48;;;;;;;6.57;2.67;;;;;;;;;;5066119;28;20992;-81
2023/03/28 13:15:27;;;;;;;6.40;2.80;;;;;;;;;;5060261;28;20431;-81
2023/03/28 13:18:08;;;;;;;4.22;2.13;;;;;;;;;;5063187;28;20429;-81
2023/03/28 13:20:43;;;;;;;7.60;2.00;;;;;;;;;;5049518;28;20428;-81
2023/03/28 13:23:12;;;;;;;6.82;2.05;;;;;;;;;;5063020;28;20438;-81
2023/03/28 13:25:38;;;;;;;6.97;3.03;;;;;;;;;;5067018;28;20415;-81
2023/03/28 13:28:21;;;;;;;8.27;3.60;;;;;;;;;;5061908;28;20431;-81
2023/03/28 13:31:03;;;;;;;9.10;3.03;;;;;;;;;;5063905;28;20414;-81
2023/03/28 13:33:32;;;;;;;8.95;2.78;;;;;;;;;;5062499;28;20408;-81
2023/03/28 13:36:12;;;;;;;7.70;2.60;;;;;;;;;;5061164;28;20421;-81
2023/03/28 13:38:44;;;;;;;9.68;3.13;;;;;;;;;;5059324;28;20449;-81
2023/03/28 13:41:28;;;;;;;6.00;2.13;;;;;;;;;;5061990;28;20412;-80
2023/03/28 13:43:56;;;;;;;8.43;3.00;;;;;;;;;;5063525;28;20420;-80
2023/03/28 13:46:27;;;;;;;6.03;2.35;;;;;;;;;;5062119;28;20431;-80
2023/03/28 13:48:55;;;;;;;7.47;2.13;;;;;;;;;;5058384;28;20862;-82
2023/03/28 13:51:22;;;;;;;8.80;2.80;;;;;;;;;;5060822;28;20419;-80
2023/03/28 13:53:49;;;;;;;8.65;2.90;;;;;;;;;;5060496;28;20891;-81
2023/03/28 13:56:18;;;;;;;7.30;2.10;;;;;;;;;;5063977;28;20431;-81
2023/03/28 13:58:47;;;;;;;7.30;2.10;;;;;;;;;;5067342;28;20417;-79
2023/03/28 14:01:15;;;;;;;6.38;2.03;;;;;;;;;;5063151;28;20440;-80
2023/03/28 14:03:45;;;;;;;7.22;2.22;;;;;;;;;;5064658;28;20920;-81
2023/03/28 14:06:12;;;;;;;7.40;2.20;;;;;;;;;;5059926;28;20448;-80
2023/03/28 14:08:45;;;;;;;6.50;2.40;;;;;;;;;;5063687;28;20411;-81
2023/03/28 14:11:12;;;;;;;5.45;2.38;;;;;;;;;;5062688;28;20747;-80
2023/03/28 14:13:38;;;;;;;5.93;2.10;;;;;;;;;;5058568;28;20440;-81
2023/03/28 14:16:05;;;;;;;2.58;1.60;;;;;;;;;;5058041;28;20452;-81
2023/03/28 14:18:34;;;;;;;7.40;2.50;;;;;;;;;;5064485;28;20427;-81
2023/03/28 14:21:02;;;;;;;4.45;2.15;;;;;;;;;;5062850;28;20419;-81
2023/03/28 14:23:29;;;;;;;7.32;2.80;;;;;;;;;;5067009;28;20524;-81
2023/03/28 14:25:57;;;;;;;4.53;2.15;;;;;;;;;;5061991;28;20478;-81
2023/03/28 14:28:27;;;;;;;6.80;2.30;;;;;;;;;;5058701;28;20429;-81
2023/03/28 14:30:53;;;;;;;7.00;2.20;;;;;;;;;;5061054;28;20421;-81
2023/03/28 14:33:21;;;;;;;6.72;2.47;;;;;;;;;;5060830;28;20475;-81
2023/03/28 14:35:57;;;;;;;5.10;3.05;;;;;;;;;;5059855;28;20474;-81
2023/03/28 14:38:30;;;;;;;6.50;2.92;;;;;;;;;;5064591;28;20440;-81
2023/03/28 14:41:04;;;;;;;7.15;2.60;;;;;;;;;;5061894;28;20440;-81
2023/03/28 14:43:31;;;;;;;6.60;2.58;;;;;;;;;;5064734;28;20432;-81
2023/03/28 14:46:02;;;;;;;6.53;2.85;;;;;;;;;;5066615;28;20433;-80
2023/03/28 14:48:29;;;;;;;4.10;2.55;;;;;;;;;;5062984;28;20433;-81
2023/03/28 14:50:56;;;;;;;8.45;3.40;;;;;;;;;;5062936;28;20796;-81